Time;durP1;ratioP1;P1;durP2;ratioP2;P2;SDS_P1;SDS_P2;PMS_P1;PMS_P2;Temp;Humidity;BMP_temperature;BMP_pressure;BME280_temperature;BME280_humidity;BME280_pressure;Samples;Min_cycle;Max_cycle;Signal;HPM_P1;HPM_P2
2022/10/10 00:01:11;;;;;;;7.63;3.58;;;6.70;99.90;;;;;;5045095;28;20075;-44
2022/10/10 00:03:37;;;;;;;9.27;4.35;;;6.50;99.90;;;;;;5045100;28;20465;-43
2022/10/10 00:06:03;;;;;;;9.05;3.95;;;6.50;99.90;;;;;;5045055;28;20083;-43
2022/10/10 00:08:28;;;;;;;10.45;4.88;;;6.60;99.90;;;;;;5045264;28;20148;-43
2022/10/10 00:10:54;;;;;;;8.20;4.82;;;6.60;99.90;;;;;;5045286;28;20463;-43
2022/10/10 00:13:20;;;;;;;6.43;4.13;;;6.50;99.90;;;;;;5045271;28;20044;-44
2022/10/10 00:15:46;;;;;;;6.15;3.88;;;6.40;99.90;;;;;;5044657;28;20067;-44
2022/10/10 00:18:12;;;;;;;7.13;4.15;;;7.30;99.90;;;;;;5043409;28;20132;-43
2022/10/10 00:20:37;;;;;;;9.60;4.30;;;6.50;99.90;;;;;;5045272;28;20080;-44
2022/10/10 00:23:03;;;;;;;8.95;4.55;;;7.40;99.90;;;;;;5045349;28;20057;-43
2022/10/10 00:25:28;;;;;;;7.40;4.20;;;6.50;99.90;;;;;;5044971;28;20049;-42
2022/10/10 00:27:54;;;;;;;9.88;3.97;;;6.50;99.90;;;;;;5044602;28;20048;-44
2022/10/10 00:30:20;;;;;;;8.50;4.32;;;6.50;99.90;;;;;;5047007;28;20041;-43
2022/10/10 00:32:46;;;;;;;8.02;3.72;;;6.50;99.90;;;;;;5048291;28;20568;-43
2022/10/10 00:35:12;;;;;;;9.00;5.15;;;7.50;99.90;;;;;;5048314;28;20047;-43
2022/10/10 00:37:37;;;;;;;6.22;4.18;;;6.50;99.90;;;;;;5048569;28;20487;-43
2022/10/10 00:40:05;;;;;;;7.38;4.00;;;6.60;99.90;;;;;;5047955;28;20037;-43
2022/10/10 00:42:30;;;;;;;10.95;4.65;;;6.50;99.90;;;;;;5048174;28;20049;-42
2022/10/10 00:45:35;;;;;;;10.95;4.90;;;6.40;99.90;;;;;;5047926;28;20045;-44
2022/10/10 00:48:30;;;;;;;6.47;4.15;;;7.20;99.90;;;;;;4984921;28;20564;-44
2022/10/10 00:51:06;;;;;;;7.95;3.83;;;6.40;99.90;;;;;;4985987;28;20082;-43
2022/10/10 00:53:41;;;;;;;5.53;3.85;;;6.50;99.90;;;;;;5031767;28;20059;-42
2022/10/10 00:56:09;;;;;;;7.35;4.22;;;6.50;99.90;;;;;;5048008;28;20036;-43
2022/10/10 00:58:35;;;;;;;13.13;4.30;;;6.50;99.90;;;;;;5048318;28;20071;-42
2022/10/10 01:01:01;;;;;;;8.05;3.75;;;6.50;99.90;;;;;;5047901;28;20045;-43
2022/10/10 01:03:27;;;;;;;8.45;3.95;;;6.50;99.90;;;;;;5047927;28;20052;-43
2022/10/10 01:05:53;;;;;;;9.35;4.28;;;6.50;99.90;;;;;;5047901;28;20053;-42
2022/10/10 01:08:19;;;;;;;7.07;3.97;;;6.60;99.90;;;;;;5047358;28;20049;-43
2022/10/10 01:11:07;;;;;;;5.68;3.72;;;6.50;99.90;;;;;;5048189;28;20037;-42
2022/10/10 01:13:54;;;;;;;7.75;4.47;;;6.60;99.90;;;;;;5048365;28;20041;-45
2022/10/10 01:16:40;;;;;;;6.88;3.92;;;6.60;99.90;;;;;;5047572;28;20652;-43
2022/10/10 01:19:34;;;;;;;7.43;4.13;;;6.60;99.90;;;;;;5047746;28;20133;-43
2022/10/10 01:22:25;;;;;;;8.05;4.40;;;6.60;99.90;;;;;;5047641;28;20055;-43
2022/10/10 01:25:11;;;;;;;5.63;4.20;;;6.50;99.90;;;;;;5047690;28;20438;-43
2022/10/10 01:27:41;;;;;;;8.00;3.65;;;6.50;99.90;;;;;;5047481;28;20404;-43
2022/10/10 01:30:10;;;;;;;6.45;4.13;;;6.40;99.90;;;;;;5047078;28;20045;-43
2022/10/10 01:32:44;;;;;;;7.10;4.18;;;6.50;99.90;;;;;;5047380;28;20044;-43
2022/10/10 01:35:23;;;;;;;4.78;3.33;;;6.50;99.90;;;;;;5048005;28;20041;-44
2022/10/10 01:38:15;;;;;;;8.00;3.92;;;6.50;99.90;;;;;;5048191;28;20491;-43
2022/10/10 01:40:49;;;;;;;7.10;4.07;;;6.50;99.90;;;;;;5047027;28;20051;-42
2022/10/10 01:43:16;;;;;;;10.00;3.75;;;6.40;99.90;;;;;;5047317;28;20041;-44
2022/10/10 01:45:47;;;;;;;5.65;4.15;;;6.40;99.90;;;;;;5047467;28;20063;-43
2022/10/10 01:48:17;;;;;;;6.60;3.63;;;6.40;99.90;;;;;;5047154;28;20049;-43
2022/10/10 01:50:57;;;;;;;7.88;4.00;;;6.30;99.90;;;;;;5047193;28;20040;-44
2022/10/10 01:53:29;;;;;;;5.05;3.55;;;6.40;99.90;;;;;;5046650;28;20048;-45
2022/10/10 01:56:02;;;;;;;;;;;6.30;99.90;;;;;;5047372;28;20115;-43
2022/10/10 01:58:34;;;;;;;5.20;3.45;;;6.40;99.90;;;;;;5047495;28;20271;-44
2022/10/10 02:01:07;;;;;;;6.97;3.92;;;7.30;99.90;;;;;;5047152;28;20044;-43
2022/10/10 02:03:38;;;;;;;9.43;3.95;;;6.30;99.90;;;;;;5047169;28;20041;-42
2022/10/10 02:06:14;;;;;;;6.55;3.42;;;6.30;99.90;;;;;;5046922;28;20051;-45
2022/10/10 02:09:02;;;;;;;5.82;3.50;;;6.40;99.90;;;;;;5046255;28;20156;-43
2022/10/10 02:11:33;;;;;;;9.60;4.07;;;6.30;99.90;;;;;;5046704;28;20094;-43
2022/10/10 02:14:07;;;;;;;11.43;4.10;;;6.30;99.90;;;;;;5047034;28;20040;-44
2022/10/10 02:16:37;;;;;;;7.15;4.10;;;6.10;99.90;;;;;;5046659;28;20047;-43
2022/10/10 02:19:07;;;;;;;5.82;3.75;;;6.20;99.90;;;;;;5046526;28;20060;-43
2022/10/10 02:21:33;;;;;;;10.25;4.45;;;6.10;99.90;;;;;;5046056;28;20041;-44
2022/10/10 02:24:03;;;;;;;5.70;3.38;;;6.10;99.90;;;;;;5046913;28;20036;-43
2022/10/10 02:26:31;;;;;;;5.72;4.43;;;6.20;99.90;;;;;;5046364;28;20059;-42
2022/10/10 02:29:02;;;;;;;7.32;4.00;;;6.10;99.90;;;;;;5046268;28;20056;-43
2022/10/10 02:31:36;;;;;;;6.97;4.00;;;6.30;99.90;;;;;;5046429;28;20041;-44
2022/10/10 02:34:16;;;;;;;6.22;4.00;;;6.20;99.90;;;;;;5046699;28;20278;-43
2022/10/10 02:36:47;;;;;;;9.55;3.92;;;6.10;99.90;;;;;;5046162;28;20495;-44
2022/10/10 02:39:14;;;;;;;11.43;3.78;;;6.10;99.90;;;;;;5046393;28;20418;-43
2022/10/10 02:41:43;;;;;;;7.35;4.07;;;6.00;99.90;;;;;;5046297;28;20041;-44
2022/10/10 02:44:10;;;;;;;11.38;5.35;;;6.00;99.90;;;;;;5046210;28;20041;-43
2022/10/10 02:46:36;;;;;;;10.95;4.80;;;6.00;99.90;;;;;;5046427;28;20069;-44
2022/10/10 02:49:02;;;;;;;8.05;4.90;;;6.00;99.90;;;;;;5046290;28;20638;-44
2022/10/10 02:51:27;;;;;;;7.43;3.92;;;6.00;99.90;;;;;;5045954;28;20045;-43
2022/10/10 02:53:53;;;;;;;6.93;4.82;;;6.00;99.90;;;;;;5046205;28;20041;-43
2022/10/10 02:56:18;;;;;;;7.32;4.18;;;6.10;99.90;;;;;;5046058;28;20498;-42
2022/10/10 02:58:44;;;;;;;9.48;4.97;;;6.00;99.90;;;;;;5045750;28;20458;-42
2022/10/10 03:01:10;;;;;;;8.43;4.93;;;6.00;99.90;;;;;;5045326;28;20071;-43
2022/10/10 03:03:35;;;;;;;9.40;4.93;;;6.00;99.90;;;;;;5045742;28;20049;-43
2022/10/10 03:06:01;;;;;;;7.72;4.10;;;6.80;99.90;;;;;;5045960;28;20479;-44
2022/10/10 03:08:27;;;;;;;10.57;4.47;;;6.10;99.90;;;;;;5045424;28;20033;-43
2022/10/10 03:10:55;;;;;;;7.30;4.13;;;6.10;99.90;;;;;;5046049;28;20033;-43
2022/10/10 03:13:21;;;;;;;7.15;4.68;;;6.30;99.90;;;;;;5046007;28;20065;-44
2022/10/10 03:15:47;;;;;;;8.20;4.90;;;6.20;99.90;;;;;;5045912;28;20047;-42
2022/10/10 03:18:13;;;;;;;7.13;4.25;;;6.10;99.90;;;;;;5045456;28;20057;-43
2022/10/10 03:20:38;;;;;;;8.40;4.60;;;6.70;99.90;;;;;;5043905;28;20140;-43
2022/10/10 03:23:04;;;;;;;9.60;4.80;;;6.20;99.90;;;;;;5045775;28;20077;-45
2022/10/10 03:25:30;;;;;;;11.68;4.07;;;7.10;99.90;;;;;;5045425;28;20036;-45
2022/10/10 03:27:55;;;;;;;8.23;4.90;;;7.10;99.90;;;;;;5045496;28;20052;-43
2022/10/10 03:30:21;;;;;;;8.38;4.57;;;6.10;99.90;;;;;;5045221;28;20045;-43
2022/10/10 03:32:46;;;;;;;8.48;4.28;;;6.20;99.90;;;;;;5045490;28;20042;-44
2022/10/10 03:35:12;;;;;;;8.35;4.55;;;6.10;99.90;;;;;;5045513;28;20040;-45
2022/10/10 03:37:38;;;;;;;7.47;4.78;;;6.10;99.90;;;;;;5043741;28;20041;-44
2022/10/10 03:40:04;;;;;;;7.90;4.93;;;6.00;99.90;;;;;;5045742;28;20081;-43
2022/10/10 03:42:29;;;;;;;7.72;4.88;;;6.10;99.90;;;;;;5045223;28;20041;-43
2022/10/10 03:44:55;;;;;;;7.85;4.25;;;6.00;99.90;;;;;;5045898;28;20044;-43
2022/10/10 03:47:21;;;;;;;8.05;4.93;;;6.00;99.90;;;;;;5045261;28;20059;-43
2022/10/10 03:49:46;;;;;;;11.93;5.18;;;6.00;99.90;;;;;;5046074;28;20045;-43
2022/10/10 03:52:12;;;;;;;8.85;4.28;;;6.00;99.90;;;;;;5045899;28;20051;-42
2022/10/10 03:54:38;;;;;;;11.52;4.90;;;6.00;99.90;;;;;;5045439;28;20147;-43
2022/10/10 03:57:03;;;;;;;7.80;4.63;;;6.00;99.90;;;;;;5045353;28;20052;-43
2022/10/10 03:59:29;;;;;;;10.80;4.65;;;6.00;99.90;;;;;;5044988;28;20052;-43
2022/10/10 04:01:55;;;;;;;7.47;4.85;;;5.90;99.90;;;;;;5045380;28;20040;-42
2022/10/10 04:04:20;;;;;;;6.15;4.75;;;5.90;99.90;;;;;;5045662;28;20060;-43
2022/10/10 04:06:46;;;;;;;8.63;4.95;;;5.90;99.90;;;;;;5049320;28;20055;-42
2022/10/10 04:09:11;;;;;;;8.15;4.97;;;5.90;99.90;;;;;;5049210;28;20136;-43
2022/10/10 04:11:39;;;;;;;10.52;5.05;;;7.00;99.90;;;;;;5048996;28;20973;-43
2022/10/10 04:14:05;;;;;;;8.52;4.75;;;5.90;99.90;;;;;;5049155;28;20049;-43
2022/10/10 04:16:31;;;;;;;8.68;4.97;;;6.70;99.90;;;;;;5048631;28;20040;-42
2022/10/10 04:18:56;;;;;;;9.02;5.22;;;5.90;99.90;;;;;;5049160;28;20406;-44
2022/10/10 04:21:22;;;;;;;7.78;5.03;;;5.80;99.90;;;;;;5048802;28;20047;-43
2022/10/10 04:23:48;;;;;;;8.43;5.32;;;5.80;99.90;;;;;;5049237;28;20118;-43
2022/10/10 04:26:13;;;;;;;9.88;5.22;;;5.70;99.90;;;;;;5048823;28;20499;-44
2022/10/10 04:28:39;;;;;;;12.02;5.50;;;5.80;99.90;;;;;;5048403;28;20520;-43
2022/10/10 04:31:05;;;;;;;9.25;5.07;;;5.80;99.90;;;;;;5048841;28;20410;-45
2022/10/10 04:33:31;;;;;;;10.32;5.65;;;5.70;99.90;;;;;;5049010;28;20084;-43
2022/10/10 04:35:57;;;;;;;8.40;5.18;;;6.70;99.90;;;;;;5049034;28;20085;-44
2022/10/10 04:38:22;;;;;;;9.32;5.72;;;6.30;99.90;;;;;;5049044;28;20495;-43
2022/10/10 04:40:49;;;;;;;9.85;5.72;;;5.60;99.90;;;;;;5049524;28;20506;-44
2022/10/10 04:43:15;;;;;;;9.65;5.80;;;5.70;99.90;;;;;;5049121;28;20087;-43
2022/10/10 04:45:41;;;;;;;10.32;6.32;;;5.60;99.90;;;;;;5048511;28;20103;-43
2022/10/10 04:48:07;;;;;;;8.18;5.68;;;5.60;99.90;;;;;;5048754;28;20103;-43
2022/10/10 04:50:33;;;;;;;12.65;5.97;;;5.60;99.90;;;;;;5048185;28;20053;-42
2022/10/10 04:52:58;;;;;;;14.18;7.20;;;5.70;99.90;;;;;;5048430;28;20052;-45
2022/10/10 04:55:24;;;;;;;15.98;6.85;;;5.70;99.90;;;;;;5048363;28;20044;-43
2022/10/10 04:57:50;;;;;;;11.95;6.93;;;5.60;99.90;;;;;;5047934;28;20064;-44
2022/10/10 05:00:15;;;;;;;9.30;5.72;;;5.70;99.90;;;;;;5048170;28;20076;-43
2022/10/10 05:02:41;;;;;;;14.85;6.57;;;5.50;99.90;;;;;;5047558;28;20056;-42
2022/10/10 05:05:07;;;;;;;10.27;6.80;;;6.50;99.90;;;;;;5048395;28;20041;-42
2022/10/10 05:07:33;;;;;;;11.15;7.20;;;5.50;99.90;;;;;;5048145;28;20045;-43
2022/10/10 05:09:59;;;;;;;14.07;6.68;;;5.50;99.90;;;;;;5047841;28;20041;-43
2022/10/10 05:12:24;;;;;;;10.25;6.68;;;5.50;99.90;;;;;;5047685;28;20041;-43
2022/10/10 05:14:50;;;;;;;14.10;6.97;;;5.50;99.90;;;;;;5047679;28;20036;-43
2022/10/10 05:17:16;;;;;;;10.00;6.30;;;5.50;99.90;;;;;;5048007;28;20037;-43
2022/10/10 05:19:41;;;;;;;11.43;6.28;;;5.60;99.90;;;;;;5048115;28;20051;-44
2022/10/10 05:22:07;;;;;;;12.38;7.05;;;5.50;99.90;;;;;;5046717;28;20320;-42
2022/10/10 05:24:33;;;;;;;12.63;6.82;;;5.50;99.90;;;;;;5048044;28;20041;-42
2022/10/10 05:26:59;;;;;;;13.60;6.97;;;5.50;99.90;;;;;;5047802;28;20045;-43
2022/10/10 05:29:24;;;;;;;12.60;7.00;;;5.40;99.90;;;;;;5045677;28;20365;-42
2022/10/10 05:31:50;;;;;;;16.13;7.78;;;5.40;99.90;;;;;;5047650;28;20043;-43
2022/10/10 05:34:16;;;;;;;10.10;6.63;;;5.50;99.90;;;;;;5047236;28;20037;-43
2022/10/10 05:36:42;;;;;;;10.60;7.38;;;6.30;99.90;;;;;;5047254;28;20040;-43
2022/10/10 05:39:08;;;;;;;8.85;7.18;;;5.60;99.90;;;;;;5047710;28;20574;-43
2022/10/10 05:41:34;;;;;;;10.68;6.72;;;5.50;99.90;;;;;;5047213;28;20471;-42
2022/10/10 05:44:00;;;;;;;13.68;6.95;;;5.50;99.90;;;;;;5048315;28;20083;-43
2022/10/10 05:46:26;;;;;;;10.82;7.00;;;5.50;99.90;;;;;;5047722;28;20068;-43
2022/10/10 05:48:52;;;;;;;12.43;6.88;;;5.60;99.90;;;;;;5047687;28;20052;-42
2022/10/10 05:51:19;;;;;;;13.75;7.10;;;5.50;99.90;;;;;;5047842;28;20554;-43
2022/10/10 05:53:45;;;;;;;11.48;7.80;;;5.50;99.90;;;;;;5047830;28;20383;-43
2022/10/10 05:56:13;;;;;;;11.23;7.15;;;5.60;99.90;;;;;;5047823;28;20036;-44
2022/10/10 05:58:39;;;;;;;9.20;6.88;;;5.60;99.90;;;;;;5047279;28;20110;-43
2022/10/10 06:01:06;;;;;;;8.88;6.50;;;5.60;99.90;;;;;;5047352;28;20127;-43
2022/10/10 06:03:33;;;;;;;10.60;6.88;;;6.20;99.90;;;;;;5047401;28;20037;-43
2022/10/10 06:05:59;;;;;;;12.32;7.22;;;5.60;99.90;;;;;;5047371;28;20074;-43
2022/10/10 06:08:25;;;;;;;12.18;7.00;;;5.50;99.90;;;;;;5047091;28;20399;-42
2022/10/10 06:10:51;;;;;;;13.13;7.45;;;5.60;99.90;;;;;;5047370;28;20048;-43
2022/10/10 06:13:18;;;;;;;11.38;7.68;;;5.50;99.90;;;;;;5047417;28;20043;-43
2022/10/10 06:15:45;;;;;;;10.73;7.25;;;5.60;99.90;;;;;;5047078;28;20214;-42
2022/10/10 06:18:11;;;;;;;12.57;7.45;;;5.70;99.90;;;;;;5047138;28;20056;-43
2022/10/10 06:20:39;;;;;;;13.30;9.23;;;5.60;99.90;;;;;;5046560;28;20123;-42
2022/10/10 06:23:06;;;;;;;12.10;8.10;;;5.60;99.90;;;;;;5046792;28;20182;-43
2022/10/10 06:25:33;;;;;;;11.70;7.72;;;5.60;99.90;;;;;;5047018;28;20063;-43
2022/10/10 06:27:59;;;;;;;9.60;6.55;;;6.50;99.90;;;;;;5046325;28;20052;-43
2022/10/10 06:30:25;;;;;;;12.50;6.50;;;5.70;99.90;;;;;;5047180;28;20049;-42
2022/10/10 06:32:50;;;;;;;9.00;6.80;;;5.70;99.90;;;;;;5046640;28;20041;-43
2022/10/10 06:35:16;;;;;;;12.00;7.47;;;5.70;99.90;;;;;;5046972;28;20041;-43
2022/10/10 06:37:42;;;;;;;12.15;7.55;;;5.70;99.90;;;;;;5046623;28;20044;-43
2022/10/10 06:40:08;;;;;;;12.88;7.30;;;5.80;99.90;;;;;;5046637;28;20104;-42
2022/10/10 06:42:33;;;;;;;9.48;6.95;;;5.80;99.90;;;;;;5046003;28;20052;-44
2022/10/10 06:44:59;;;;;;;11.93;7.13;;;5.80;99.90;;;;;;5046511;28;20052;-42
2022/10/10 06:47:24;;;;;;;9.65;6.70;;;5.70;99.90;;;;;;5045659;28;20056;-42
2022/10/10 06:49:50;;;;;;;10.73;7.22;;;5.80;99.90;;;;;;5046205;28;20136;-42
2022/10/10 06:52:16;;;;;;;13.73;7.47;;;5.90;99.90;;;;;;5046694;28;20368;-42
2022/10/10 06:54:42;;;;;;;10.02;7.13;;;5.90;99.90;;;;;;5045908;28;20091;-43
2022/10/10 06:57:07;;;;;;;12.48;7.28;;;5.90;99.90;;;;;;5046076;28;20045;-44
2022/10/10 06:59:33;;;;;;;8.93;6.50;;;6.00;99.90;;;;;;5046431;28;20045;-43
2022/10/10 07:01:59;;;;;;;10.75;6.85;;;6.70;99.90;;;;;;5046948;28;20155;-43
2022/10/10 07:04:25;;;;;;;10.57;7.28;;;6.20;99.90;;;;;;5046512;28;20083;-43
2022/10/10 07:06:51;;;;;;;10.15;6.50;;;6.30;99.90;;;;;;5046210;28;20513;-42
2022/10/10 07:09:17;;;;;;;11.50;6.57;;;6.40;99.90;;;;;;5046503;28;20161;-43
2022/10/10 07:11:44;;;;;;;10.40;7.10;;;6.50;99.90;;;;;;5046149;28;20048;-45
2022/10/10 07:14:11;;;;;;;8.77;6.60;;;6.70;99.90;;;;;;5046291;28;20044;-43
2022/10/10 07:16:36;;;;;;;11.27;6.43;;;6.90;99.90;;;;;;5045765;28;20056;-43
2022/10/10 07:19:02;;;;;;;10.00;6.30;;;7.10;99.90;;;;;;5046355;28;20041;-43
2022/10/10 07:21:28;;;;;;;10.27;6.82;;;7.40;99.90;;;;;;5045650;28;20545;-43
2022/10/10 07:23:54;;;;;;;10.40;5.60;;;7.40;99.90;;;;;;5044990;28;20080;-42
2022/10/10 07:26:21;;;;;;;11.15;6.32;;;7.70;99.90;;;;;;5045274;28;20053;-42
2022/10/10 07:28:48;;;;;;;9.40;5.95;;;7.90;99.90;;;;;;5060809;28;20426;-44
2022/10/10 07:31:14;;;;;;;10.07;6.15;;;8.00;99.90;;;;;;5045104;28;20040;-44
2022/10/10 07:33:43;;;;;;;9.32;5.93;;;8.00;99.90;;;;;;5045315;28;20052;-44
2022/10/10 07:36:09;;;;;;;10.38;6.07;;;8.10;99.90;;;;;;5045314;28;20041;-43
2022/10/10 07:38:36;;;;;;;9.88;6.00;;;8.30;99.90;;;;;;5045462;28;20041;-44
2022/10/10 07:41:11;;;;;;;8.05;6.07;;;7.70;99.90;;;;;;5049142;28;20045;-42
2022/10/10 07:43:37;;;;;;;8.75;6.05;;;8.90;99.90;;;;;;5049198;28;20049;-44
2022/10/10 07:46:17;;;;;;;8.45;6.10;;;8.90;99.90;;;;;;5049712;28;20032;-45
2022/10/10 07:48:43;;;;;;;14.63;6.28;;;9.10;99.90;;;;;;5048712;28;20574;-43
2022/10/10 07:51:09;;;;;;;8.32;5.88;;;9.30;99.90;;;;;;5049605;28;20036;-42
2022/10/10 07:53:35;;;;;;;10.88;6.65;;;9.30;99.90;;;;;;5048403;28;20570;-44
2022/10/10 07:56:06;;;;;;;10.18;6.13;;;9.50;99.90;;;;;;5049387;28;20060;-43
2022/10/10 07:58:33;;;;;;;10.32;6.80;;;9.40;99.90;;;;;;5049572;28;20414;-43
2022/10/10 08:01:02;;;;;;;10.38;6.43;;;9.60;99.90;;;;;;5049474;28;20045;-43
2022/10/10 08:03:28;;;;;;;9.25;6.07;;;9.80;99.90;;;;;;5049285;28;20391;-44
2022/10/10 08:05:53;;;;;;;11.18;7.45;;;9.50;99.90;;;;;;5049113;28;20040;-43
2022/10/10 08:08:19;;;;;;;12.32;6.35;;;9.80;99.90;;;;;;5049784;28;20505;-45
2022/10/10 08:10:45;;;;;;;8.70;5.85;;;9.40;99.90;;;;;;5049559;28;20124;-43
2022/10/10 08:13:10;;;;;;;8.43;6.07;;;9.60;99.90;;;;;;5047533;28;20088;-43
2022/10/10 08:15:38;;;;;;;10.63;7.15;;;9.50;99.90;;;;;;5049286;28;20080;-43
2022/10/10 08:18:04;;;;;;;12.77;6.47;;;10.20;99.90;;;;;;5048655;28;20091;-44
2022/10/10 08:20:30;;;;;;;12.52;6.22;;;10.10;99.90;;;;;;5047694;28;20446;-43
2022/10/10 08:22:55;;;;;;;12.93;6.95;;;10.00;99.90;;;;;;5048264;28;20045;-43
2022/10/10 08:25:21;;;;;;;8.00;6.57;;;10.80;99.90;;;;;;5048393;28;20131;-43
2022/10/10 08:27:47;;;;;;;11.13;6.05;;;11.10;99.90;;;;;;5048378;28;20589;-43
2022/10/10 08:30:12;;;;;;;9.85;6.43;;;11.00;99.90;;;;;;5049016;28;20037;-43
2022/10/10 08:32:38;;;;;;;8.65;5.85;;;10.90;99.90;;;;;;5048910;28;20036;-44
2022/10/10 08:35:04;;;;;;;8.25;5.78;;;11.20;99.90;;;;;;5048950;28;20095;-44
2022/10/10 08:37:30;;;;;;;11.23;6.50;;;10.80;99.90;;;;;;5048835;28;20041;-43
2022/10/10 08:39:55;;;;;;;9.18;5.57;;;11.60;99.90;;;;;;5048847;28;20072;-43
2022/10/10 08:42:32;;;;;;;7.82;5.90;;;11.30;99.90;;;;;;5048591;28;20399;-43
2022/10/10 08:45:03;;;;;;;9.05;5.55;;;11.50;99.90;;;;;;5048514;28;20048;-46
2022/10/10 08:47:50;;;;;;;10.75;6.30;;;12.60;99.90;;;;;;5048434;28;20053;-44
2022/10/10 08:50:24;;;;;;;9.27;5.72;;;12.10;99.90;;;;;;5047692;28;20051;-42
2022/10/10 08:53:02;;;;;;;8.68;5.65;;;11.80;99.90;;;;;;5047972;28;20064;-42
2022/10/10 08:55:42;;;;;;;9.25;5.68;;;11.80;99.90;;;;;;5048126;28;20364;-43
2022/10/10 08:58:34;;;;;;;9.50;6.03;;;11.70;99.90;;;;;;5047584;28;20037;-43
2022/10/10 09:01:18;;;;;;;12.13;6.77;;;11.70;99.90;;;;;;5047690;28;20554;-43
2022/10/10 09:03:52;;;;;;;10.38;5.85;;;11.50;99.90;;;;;;5047985;28;20550;-43
2022/10/10 09:06:20;;;;;;;11.43;6.90;;;11.60;99.90;;;;;;5048235;28;20056;-43
2022/10/10 09:09:03;;;;;;;9.30;7.00;;;12.40;99.90;;;;;;5045830;28;20076;-43
2022/10/10 09:11:44;;;;;;;9.60;6.07;;;11.50;99.90;;;;;;5047623;28;20043;-44
2022/10/10 09:14:30;;;;;;;8.13;6.07;;;11.50;99.90;;;;;;5047305;28;20116;-44
2022/10/10 09:17:07;;;;;;;8.82;5.35;;;11.70;99.90;;;;;;5046639;28;20053;-44
2022/10/10 09:20:01;;;;;;;8.77;5.95;;;12.10;99.90;;;;;;5046613;28;20048;-42
2022/10/10 09:22:32;;;;;;;10.15;6.10;;;12.10;99.90;;;;;;5046475;28;20044;-43
2022/10/10 09:25:05;;;;;;;9.38;5.47;;;12.40;99.90;;;;;;5046751;28;20120;-43
2022/10/10 09:27:37;;;;;;;8.75;6.55;;;12.60;99.90;;;;;;5046094;28;20053;-43
2022/10/10 09:30:19;;;;;;;7.45;5.47;;;12.80;99.90;;;;;;5046072;28;20550;-44
2022/10/10 09:32:57;;;;;;;8.37;5.70;;;12.90;99.90;;;;;;5046312;28;20040;-43
2022/10/10 09:35:25;;;;;;;8.57;6.60;;;13.20;99.90;;;;;;5046710;28;20084;-44
2022/10/10 09:38:22;;;;;;;10.20;6.10;;;13.40;99.90;;;;;;5046209;28;20037;-45
2022/10/10 09:40:57;;;;;;;12.60;6.80;;;13.50;99.90;;;;;;5019336;28;20052;-42
2022/10/10 09:43:28;;;;;;;8.73;6.20;;;13.60;99.90;;;;;;5060962;28;20055;-45
2022/10/10 09:45:57;;;;;;;8.68;5.93;;;13.60;99.90;;;;;;5045662;28;20098;-44
2022/10/10 09:48:35;;;;;;;10.90;6.60;;;13.60;99.90;;;;;;5045520;28;20057;-43
2022/10/10 09:51:04;;;;;;;9.40;6.07;;;13.70;99.90;;;;;;5045648;28;20115;-43
2022/10/10 09:53:30;;;;;;;8.88;6.20;;;13.70;99.90;;;;;;5045823;28;20045;-44
2022/10/10 09:55:57;;;;;;;9.43;6.15;;;13.90;99.90;;;;;;5045904;28;20041;-44
2022/10/10 09:58:32;;;;;;;10.63;6.32;;;14.00;99.90;;;;;;5045999;28;20572;-44
2022/10/10 10:01:13;;;;;;;7.85;5.38;;;14.20;99.90;;;;;;5044978;28;20501;-43
2022/10/10 10:03:40;;;;;;;9.20;5.18;;;14.50;99.90;;;;;;5044290;28;20045;-43
2022/10/10 10:06:13;;;;;;;8.15;5.55;;;14.50;99.90;;;;;;5045713;28;20391;-43
2022/10/10 10:08:40;;;;;;;12.23;6.18;;;14.70;99.90;;;;;;5045485;28;20574;-45
2022/10/10 10:11:25;;;;;;;9.60;5.55;;;14.90;99.90;;;;;;5045548;28;20044;-43
2022/10/10 10:13:55;;;;;;;10.50;5.35;;;15.00;99.90;;;;;;5044955;28;20040;-45
2022/10/10 10:16:31;;;;;;;8.70;5.60;;;15.30;99.90;;;;;;5045062;28;20510;-43
2022/10/10 10:18:56;;;;;;;9.40;6.05;;;15.10;99.90;;;;;;5045348;28;20056;-43
2022/10/10 10:21:23;;;;;;;8.50;5.10;;;15.10;99.90;;;;;;5045472;28;20041;-45
2022/10/10 10:24:17;;;;;;;9.88;5.95;;;15.00;99.90;;;;;;5045808;28;20498;-44
2022/10/10 10:26:44;;;;;;;14.40;6.43;;;15.10;99.90;;;;;;5043989;28;20045;-38
2022/10/10 10:29:29;;;;;;;7.68;6.00;;;15.20;99.90;;;;;;5040693;28;20375;-38
2022/10/10 10:32:03;;;;;;;9.50;5.85;;;15.20;99.90;;;;;;5043290;28;20065;-38
2022/10/10 10:34:38;;;;;;;9.15;5.82;;;15.30;99.90;;;;;;5043088;28;20040;-37
2022/10/10 10:37:19;;;;;;;11.90;5.88;;;15.30;99.90;;;;;;5044585;28;20491;-37
2022/10/10 10:40:03;;;;;;;7.88;5.05;;;15.40;99.90;;;;;;5044923;28;20049;-38
2022/10/10 10:42:31;;;;;;;11.07;6.18;;;13.50;99.90;;;;;;5044883;28;20049;-38
2022/10/10 10:45:03;;;;;;;6.80;5.80;;;15.30;99.90;;;;;;5044269;28;20558;-40
2022/10/10 10:47:46;;;;;;;8.63;5.90;;;15.30;99.90;;;;;;5044527;28;20057;-38
2022/10/10 10:50:22;;;;;;;8.00;6.00;;;15.30;99.90;;;;;;5045122;28;20076;-38
2022/10/10 10:52:57;;;;;;;7.97;5.35;;;15.40;99.90;;;;;;5045031;28;20145;-38
2022/10/10 10:55:52;;;;;;;7.00;6.07;;;15.50;99.90;;;;;;5045637;28;20475;-38
2022/10/10 10:58:36;;;;;;;10.00;5.72;;;15.60;99.90;;;;;;5044693;28;20357;-39
2022/10/10 11:01:05;;;;;;;9.02;4.90;;;15.60;99.90;;;;;;5043886;28;20045;-36
2022/10/10 11:03:45;;;;;;;6.10;4.45;;;15.70;99.90;;;;;;5043895;28;20045;-39
2022/10/10 11:06:20;;;;;;;8.70;5.53;;;15.70;99.90;;;;;;5043676;28;20048;-38
2022/10/10 11:09:05;;;;;;;11.27;5.35;;;15.70;99.90;;;;;;5062046;28;20052;-37
2022/10/10 11:11:33;;;;;;;7.63;4.78;;;15.70;99.90;;;;;;5061422;28;20044;-41
2022/10/10 11:14:37;;;;;;;9.52;5.45;;;15.70;99.90;;;;;;5061054;28;20043;-40
2022/10/10 11:17:27;;;;;;;8.88;5.55;;;15.80;99.90;;;;;;5062110;28;20036;-39
2022/10/10 11:19:58;;;;;;;10.15;5.93;;;15.80;99.90;;;;;;5062076;28;20394;-41
2022/10/10 11:22:35;;;;;;;10.63;6.03;;;16.20;99.90;;;;;;5061903;28;20049;-41
2022/10/10 11:25:17;;;;;;;7.78;5.25;;;15.80;99.90;;;;;;5062345;28;20472;-44
2022/10/10 11:27:58;;;;;;;9.70;5.30;;;15.80;99.90;;;;;;5061989;28;20095;-42
2022/10/10 11:30:28;;;;;;;9.30;4.80;;;15.90;99.90;;;;;;5060550;28;20044;-36
2022/10/10 11:33:09;;;;;;;9.73;5.05;;;15.90;99.90;;;;;;5062666;28;20048;-37
2022/10/10 11:35:53;;;;;;;11.48;5.75;;;15.90;99.90;;;;;;5061941;28;20565;-36
2022/10/10 11:38:22;;;;;;;10.52;5.18;;;15.80;99.90;;;;;;5062155;28;20170;-38
2022/10/10 11:40:57;;;;;;;8.68;5.15;;;15.80;99.90;;;;;;5062186;28;20052;-37
2022/10/10 11:43:36;;;;;;;10.10;5.40;;;15.70;99.90;;;;;;5062196;28;20079;-36
2022/10/10 11:46:31;;;;;;;8.75;4.93;;;15.60;99.90;;;;;;5043709;28;20053;-37
2022/10/10 11:49:06;;;;;;;8.93;4.82;;;15.40;99.90;;;;;;5061033;28;20402;-38
2022/10/10 11:51:56;;;;;;;10.15;5.65;;;15.30;99.90;;;;;;5062146;28;20051;-36
2022/10/10 11:54:37;;;;;;;7.28;5.22;;;15.10;99.90;;;;;;5062010;28;20151;-39
2022/10/10 11:57:11;;;;;;;11.35;6.03;;;15.00;99.90;;;;;;5061217;28;20044;-42
2022/10/10 11:59:53;;;;;;;8.60;5.57;;;14.90;99.90;;;;;;5062020;28;20045;-42
2022/10/10 12:02:26;;;;;;;8.93;5.18;;;14.80;99.90;;;;;;5062090;28;20052;-41
2022/10/10 12:04:52;;;;;;;8.88;5.57;;;14.70;99.90;;;;;;5061880;28;20478;-42
2022/10/10 12:07:28;;;;;;;8.02;5.72;;;14.60;99.90;;;;;;5053109;28;20056;-39
2022/10/10 12:10:18;;;;;;;8.77;5.85;;;14.60;99.90;;;;;;5061936;28;20051;-38
2022/10/10 12:12:47;;;;;;;7.82;5.55;;;14.50;99.90;;;;;;5061975;28;20114;-39
2022/10/10 12:15:33;;;;;;;14.82;7.50;;;14.40;99.90;;;;;;5061997;28;20086;-39
2022/10/10 12:17:59;;;;;;;12.45;7.22;;;14.30;99.90;;;;;;5062303;28;20036;-40
2022/10/10 12:20:25;;;;;;;8.00;6.13;;;14.30;99.90;;;;;;5062034;28;20127;-37
2022/10/10 12:23:09;;;;;;;8.50;6.00;;;14.30;99.90;;;;;;5062092;28;20041;-38
2022/10/10 12:25:44;;;;;;;9.48;6.35;;;14.30;99.90;;;;;;5062847;28;20071;-39
2022/10/10 12:28:13;;;;;;;9.82;6.43;;;14.30;99.90;;;;;;5065004;28;20044;-37
2022/10/10 12:30:54;;;;;;;8.43;5.90;;;14.30;99.90;;;;;;5064643;28;20041;-37
2022/10/10 12:33:28;;;;;;;9.73;5.57;;;14.20;99.90;;;;;;5065112;28;20064;-36
2022/10/10 12:35:54;;;;;;;11.63;6.35;;;14.10;99.90;;;;;;5065541;28;20071;-37
2022/10/10 12:38:22;;;;;;;8.02;5.60;;;14.20;99.90;;;;;;5063352;28;20128;-37
2022/10/10 12:41:03;;;;;;;12.15;5.68;;;14.10;99.90;;;;;;5065379;28;20040;-36
2022/10/10 12:43:41;;;;;;;7.72;5.32;;;14.10;99.90;;;;;;5064776;28;20047;-36
2022/10/10 12:46:26;;;;;;;9.35;5.68;;;14.10;99.90;;;;;;5063163;28;20757;-47
2022/10/10 12:49:01;;;;;;;9.40;5.88;;;14.10;99.90;;;;;;5064847;28;20060;-47
2022/10/10 12:51:29;;;;;;;13.48;5.93;;;14.40;99.90;;;;;;5064558;28;20691;-47
2022/10/10 12:53:58;;;;;;;11.00;5.55;;;14.00;99.90;;;;;;5064828;28;20052;-45
2022/10/10 12:56:38;;;;;;;10.55;6.22;;;14.00;99.90;;;;;;5064355;28;20457;-45
2022/10/10 12:59:14;;;;;;;12.75;7.40;;;14.00;99.90;;;;;;5064848;28;20051;-45
2022/10/10 13:01:44;;;;;;;12.10;7.03;;;13.90;99.90;;;;;;5064403;28;20788;-49
2022/10/10 13:04:13;;;;;;;14.50;8.43;;;13.80;99.90;;;;;;5064913;28;20040;-55
2022/10/10 13:06:42;;;;;;;12.05;7.82;;;13.70;99.90;;;;;;5048771;28;20045;-51
2022/10/10 13:09:17;;;;;;;12.45;7.57;;;13.70;99.90;;;;;;5044568;28;20037;-47